Coleraine, Minnesota
Current Conditions -  °F | °C
As of 5:15 AM on Sunday 23 Nov 2014 (Local Time) from KGPZ Reporting Station
Overcast Overcast  
Wind Chill: 36°   Ceiling: 200
Heat Index: 36°   Visibility: 0.25mi
Dew Point: 32°   Wind: 0mph
Humidity: 87%   Direction: NA
Pressure: 29.38"   Gusts: NA
Location:  47.29°N, 93.43°W
Report Text: KGPZ 231115Z AUTO 00000KT 1/4SM OVC002 02/00 A2938 RMK AO1
Loading
Personal Weather Stations






























Interactive Weather Map New forecast layout! Learn more

10-Day Weather Forecast

Advertisements
Track Severe Weather on mobile